sensor_id;sensor_type;location;lat;lon;timestamp;P1;durP1;ratioP1;P2;durP2;ratioP2
75589;SDS011;76096;47.236;11.318;2024-01-30T06:15:37;8.52;;;2.67;;
75589;SDS011;76096;47.236;11.318;2024-01-30T06:18:04;4.50;;;1.60;;
75589;SDS011;76096;47.236;11.318;2024-01-30T11:06:24;5.80;;;3.33;;
75589;SDS011;76096;47.236;11.318;2024-01-30T11:09:03;4.38;;;1.40;;
75589;SDS011;76096;47.236;11.318;2024-01-30T11:11:32;5.07;;;1.40;;
75589;SDS011;76096;47.236;11.318;2024-01-30T11:14:01;4.30;;;1.27;;
75589;SDS011;76096;47.236;11.318;2024-01-30T11:16:30;4.70;;;1.33;;
75589;SDS011;76096;47.236;11.318;2024-01-30T11:19:00;3.95;;;1.40;;
75589;SDS011;76096;47.236;11.318;2024-01-30T11:21:30;5.10;;;1.23;;
75589;SDS011;76096;47.236;11.318;2024-01-30T11:24:03;5.13;;;1.13;;
75589;SDS011;76096;47.236;11.318;2024-01-30T11:26:30;4.00;;;1.08;;
75589;SDS011;76096;47.236;11.318;2024-01-30T11:29:02;5.45;;;1.30;;
75589;SDS011;76096;47.236;11.318;2024-01-30T11:31:30;4.25;;;1.10;;
75589;SDS011;76096;47.236;11.318;2024-01-30T11:34:06;4.72;;;1.10;;
75589;SDS011;76096;47.236;11.318;2024-01-30T11:36:38;1.80;;;0.70;;
75589;SDS011;76096;47.236;11.318;2024-01-30T11:39:11;5.68;;;1.30;;
75589;SDS011;76096;47.236;11.318;2024-01-30T11:41:42;5.25;;;1.40;;
75589;SDS011;76096;47.236;11.318;2024-01-30T11:44:18;5.05;;;1.20;;
75589;SDS011;76096;47.236;11.318;2024-01-30T11:46:57;2.72;;;0.90;;
75589;SDS011;76096;47.236;11.318;2024-01-30T11:49:32;3.13;;;0.73;;
75589;SDS011;76096;47.236;11.318;2024-01-30T11:52:08;2.45;;;0.77;;
75589;SDS011;76096;47.236;11.318;2024-01-30T11:54:39;2.28;;;0.60;;
75589;SDS011;76096;47.236;11.318;2024-01-30T11:57:26;1.50;;;0.60;;
75589;SDS011;76096;47.236;11.318;2024-01-30T11:59:55;1.42;;;0.50;;
75589;SDS011;76096;47.236;11.318;2024-01-30T12:02:23;2.20;;;0.60;;
75589;SDS011;76096;47.236;11.318;2024-01-30T12:04:57;1.75;;;0.60;;
75589;SDS011;76096;47.236;11.318;2024-01-30T12:07:25;0.88;;;0.35;;
75589;SDS011;76096;47.236;11.318;2024-01-30T12:09:52;1.77;;;0.50;;
75589;SDS011;76096;47.236;11.318;2024-01-30T12:12:23;1.73;;;0.60;;
75589;SDS011;76096;47.236;11.318;2024-01-30T12:14:59;1.60;;;0.68;;
75589;SDS011;76096;47.236;11.318;2024-01-30T12:20:02;1.33;;;0.50;;
75589;SDS011;76096;47.236;11.318;2024-01-30T12:22:44;2.15;;;0.77;;
75589;SDS011;76096;47.236;11.318;2024-01-30T12:25:14;1.85;;;0.40;;
75589;SDS011;76096;47.236;11.318;2024-01-30T12:27:43;2.08;;;0.60;;
75589;SDS011;76096;47.236;11.318;2024-01-30T12:30:22;2.35;;;0.50;;
75589;SDS011;76096;47.236;11.318;2024-01-30T12:32:49;1.88;;;0.60;;
75589;SDS011;76096;47.236;11.318;2024-01-30T12:35:23;2.85;;;0.85;;
75589;SDS011;76096;47.236;11.318;2024-01-30T12:37:52;2.05;;;0.57;;
75589;SDS011;76096;47.236;11.318;2024-01-30T12:40:17;2.17;;;0.77;;
75589;SDS011;76096;47.236;11.318;2024-01-30T12:42:45;4.35;;;0.98;;
75589;SDS011;76096;47.236;11.318;2024-01-30T12:45:16;2.15;;;0.70;;
75589;SDS011;76096;47.236;11.318;2024-01-30T13:29:29;1.33;;;0.40;;
75589;SDS011;76096;47.236;11.318;2024-01-30T13:37:53;2.15;;;0.82;;
75589;SDS011;76096;47.236;11.318;2024-01-30T13:40:19;2.38;;;0.70;;
75589;SDS011;76096;47.236;11.318;2024-01-30T13:50:16;7.88;;;1.10;;
75589;SDS011;76096;47.236;11.318;2024-01-30T13:56:45;3.10;;;0.88;;
